Time;durP1;ratioP1;P1;durP2;ratioP2;P2;SDS_P1;SDS_P2;PMS_P1;PMS_P2;Temp;Humidity;BMP_temperature;BMP_pressure;BME280_temperature;BME280_humidity;BME280_pressure;Samples;Min_cycle;Max_cycle;Signal;HPM_P1;HPM_P2
2022/08/02 00:00:51;;;;;;;4.45;2.67;;;;;;;15.18;100.00;93088.50;5104121;28;20049;-74
2022/08/02 00:03:19;;;;;;;3.20;2.42;;;;;;;15.20;100.00;93089.03;5100239;28;20052;-74
2022/08/02 00:05:46;;;;;;;13.18;5.25;;;;;;;15.02;100.00;93072.81;5103808;28;20123;-74
2022/08/02 00:08:13;;;;;;;24.10;8.88;;;;;;;15.10;100.00;93080.13;5103112;28;20090;-74
2022/08/02 00:10:39;;;;;;;6.93;3.92;;;;;;;15.16;100.00;93080.97;5102911;28;20569;-75
2022/08/02 00:13:07;;;;;;;49.20;17.98;;;;;;;14.94;100.00;93079.16;5095504;28;20062;-75
2022/08/02 00:15:34;;;;;;;30.13;9.90;;;;;;;14.94;100.00;93074.00;5098378;28;20696;-74
2022/08/02 00:18:01;;;;;;;28.05;10.23;;;;;;;14.99;100.00;93075.09;5103480;28;20048;-74
2022/08/02 00:20:29;;;;;;;16.92;6.35;;;;;;;15.00;100.00;93080.00;5092863;28;20048;-74
2022/08/02 00:22:56;;;;;;;8.77;4.35;;;;;;;15.02;100.00;93072.81;5103564;28;20051;-74
2022/08/02 00:25:22;;;;;;;10.85;5.35;;;;;;;15.06;100.00;93083.44;5097292;28;20567;-74
2022/08/02 00:27:49;;;;;;;8.00;4.25;;;;;;;15.08;100.00;93078.81;5094535;28;20052;-75
2022/08/02 00:30:16;;;;;;;8.88;4.22;;;;;;;15.03;100.00;93076.94;5087260;28;20051;-76
2022/08/02 00:32:43;;;;;;;9.43;3.95;;;;;;;15.00;100.00;93079.22;5087874;28;20439;-75
2022/08/02 00:35:09;;;;;;;8.02;3.30;;;;;;;14.92;100.00;93067.50;5088299;28;20579;-76
2022/08/02 00:37:40;;;;;;;6.55;3.00;;;;;;;14.86;100.00;93076.22;5088955;28;20048;-76
2022/08/02 00:40:08;;;;;;;6.05;3.40;;;;;;;14.82;100.00;93081.84;5087569;28;20074;-75
2022/08/02 00:42:35;;;;;;;25.90;11.13;;;;;;;14.82;100.00;93076.69;5090819;28;20452;-75
2022/08/02 00:45:02;;;;;;;22.00;9.73;;;;;;;14.81;100.00;93067.38;5089623;28;20490;-75
2022/08/02 00:47:28;;;;;;;18.50;8.20;;;;;;;14.79;100.00;93063.44;5089163;28;20074;-75
2022/08/02 00:49:55;;;;;;;13.65;6.75;;;;;;;14.79;100.00;93074.59;5086947;28;20295;-75
2022/08/02 00:52:22;;;;;;;10.43;5.80;;;;;;;14.83;100.00;93073.06;5087211;28;20043;-75
2022/08/02 00:54:50;;;;;;;9.73;4.50;;;;;;;14.83;100.00;93064.53;5086977;28;20100;-74
2022/08/02 00:57:17;;;;;;;7.85;4.80;;;;;;;14.86;100.00;93073.63;5086776;28;20048;-74
2022/08/02 00:59:44;;;;;;;5.30;3.58;;;;;;;14.83;100.00;93059.38;5088506;28;20048;-74
2022/08/02 01:02:11;;;;;;;5.07;3.17;;;;;;;14.85;100.00;93069.47;5088244;28;20550;-75
2022/08/02 01:04:37;;;;;;;5.07;3.13;;;;;;;14.76;100.00;93058.78;5088335;28;20377;-74
2022/08/02 01:07:05;;;;;;;4.68;2.97;;;;;;;14.66;100.00;93054.19;5088009;28;20048;-74
2022/08/02 01:09:32;;;;;;;4.65;2.72;;;;;;;14.72;100.00;93058.41;5088411;28;20048;-74
2022/08/02 01:12:00;;;;;;;3.53;2.70;;;;;;;14.76;100.00;93063.94;5088273;28;20044;-74
2022/08/02 01:14:27;;;;;;;3.83;2.60;;;;;;;14.69;100.00;93062.25;5088438;28;20093;-74
2022/08/02 01:17:08;;;;;;;4.07;2.60;;;;;;;14.74;100.00;93068.53;5088276;28;20591;-74
2022/08/02 01:19:43;;;;;;;3.83;2.90;;;;;;;14.67;100.00;93064.31;5088145;28;20044;-74
2022/08/02 01:22:36;;;;;;;3.72;2.78;;;;;;;14.65;100.00;93063.78;5088500;28;20148;-73
2022/08/02 01:25:15;;;;;;;3.25;2.22;;;;;;;14.62;100.00;93063.47;5087975;28;20105;-74
2022/08/02 01:27:54;;;;;;;2.97;2.38;;;;;;;14.62;100.00;93060.88;5088377;28;20048;-74
2022/08/02 01:30:22;;;;;;;3.78;2.40;;;;;;;14.64;100.00;93057.03;5088351;28;20048;-74
2022/08/02 01:32:57;;;;;;;3.78;2.20;;;;;;;14.54;100.00;93051.75;5088226;28;20048;-74
2022/08/02 01:35:30;;;;;;;3.35;2.25;;;;;;;14.63;100.00;93055.47;5088220;28;20451;-74
2022/08/02 01:38:04;;;;;;;7.80;2.88;;;;;;;14.53;100.00;93055.31;5091152;28;20044;-75
2022/08/02 01:40:36;;;;;;;6.25;2.75;;;;;;;14.49;100.00;93054.25;5092090;28;20086;-76
2022/08/02 01:43:03;;;;;;;3.45;2.42;;;;;;;14.48;100.00;93053.44;5091951;28;20097;-75
2022/08/02 01:45:35;;;;;;;4.20;2.90;;;;;;;14.51;100.00;93052.19;5091579;28;20040;-75
2022/08/02 01:48:03;;;;;;;3.85;2.80;;;;;;;14.49;100.00;93055.00;5091876;28;20036;-75
2022/08/02 01:50:33;;;;;;;4.07;2.63;;;;;;;14.35;100.00;93051.97;5091887;28;20105;-75
2022/08/02 01:53:05;;;;;;;3.30;2.50;;;;;;;14.41;100.00;93045.84;5091667;28;20040;-75
2022/08/02 01:55:37;;;;;;;4.40;2.70;;;;;;;14.38;100.00;93041.19;5091611;28;20052;-75
2022/08/02 01:58:07;;;;;;;3.85;2.90;;;;;;;14.36;100.00;93053.56;5091229;28;20048;-75
2022/08/02 02:00:38;;;;;;;4.38;2.50;;;;;;;14.31;100.00;93048.31;5091650;28;20094;-75
2022/08/02 02:03:08;;;;;;;3.88;2.30;;;;;;;14.27;100.00;93044.63;5091282;28;20622;-75
2022/08/02 02:05:36;;;;;;;4.63;2.88;;;;;;;14.24;100.00;93042.50;5090795;28;20523;-75
2022/08/02 02:08:05;;;;;;;4.07;2.60;;;;;;;14.13;100.00;93044.19;5091471;28;20043;-76
2022/08/02 02:10:34;;;;;;;4.32;3.03;;;;;;;14.13;100.00;93050.09;5091390;28;20051;-76
2022/08/02 02:13:05;;;;;;;3.80;2.53;;;;;;;13.94;100.00;93048.78;5091350;28;20086;-79
2022/08/02 02:15:33;;;;;;;3.88;2.70;;;;;;;13.87;100.00;93036.81;5091061;28;20509;-77
2022/08/02 02:18:02;;;;;;;4.93;2.80;;;;;;;13.94;100.00;93036.69;5091353;28;20047;-78
2022/08/02 02:20:29;;;;;;;3.40;2.65;;;;;;;13.90;100.00;93028.59;5090986;28;20085;-75
2022/08/02 02:22:58;;;;;;;3.38;2.30;;;;;;;13.87;100.00;93047.16;5091073;28;20047;-75
2022/08/02 02:25:25;;;;;;;4.43;2.42;;;;;;;13.87;100.00;93048.94;5090902;28;20448;-75
2022/08/02 02:27:56;;;;;;;3.63;2.83;;;;;;;13.46;100.00;93039.50;5091033;28;20048;-75
2022/08/02 02:30:27;;;;;;;3.25;2.50;;;;;;;13.67;100.00;93052.75;5091118;28;20452;-75
2022/08/02 02:32:58;;;;;;;3.28;2.28;;;;;;;13.70;100.00;93046.34;5090675;28;20493;-76
2022/08/02 02:35:30;;;;;;;2.90;2.30;;;;;;;13.80;100.00;93046.50;5090567;28;20044;-76
2022/08/02 02:38:01;;;;;;;4.28;2.42;;;;;;;13.83;100.00;93045.25;5090432;28;20489;-76
2022/08/02 02:40:29;;;;;;;3.83;2.80;;;;;;;13.89;100.00;93044.34;5090545;28;20503;-76
2022/08/02 02:42:56;;;;;;;5.00;2.30;;;;;;;13.84;100.00;93044.25;5090627;28;20036;-76
2022/08/02 02:45:24;;;;;;;3.75;2.33;;;;;;;13.75;100.00;93044.63;5090409;28;20048;-76
2022/08/02 02:47:53;;;;;;;3.50;2.47;;;;;;;13.69;100.00;93050.72;5089160;28;20044;-75
2022/08/02 02:50:21;;;;;;;3.17;2.38;;;;;;;13.57;100.00;93053.34;5090659;28;20097;-75
2022/08/02 02:52:50;;;;;;;4.22;2.55;;;;;;;13.60;100.00;93047.72;5090264;28;20044;-75
2022/08/02 02:55:18;;;;;;;3.28;2.35;;;;;;;13.64;100.00;93037.72;5090330;28;20113;-74
2022/08/02 02:57:46;;;;;;;4.38;2.80;;;;;;;13.70;100.00;93039.38;5090439;28;20044;-74
2022/08/02 03:00:14;;;;;;;5.57;2.83;;;;;;;13.69;100.00;93052.50;5090421;28;20044;-74
2022/08/02 03:02:43;;;;;;;6.63;2.65;;;;;;;13.59;100.00;93040.22;5090453;28;20040;-74
2022/08/02 03:05:12;;;;;;;3.83;2.85;;;;;;;13.59;100.00;93045.38;5090304;28;20047;-74
2022/08/02 03:07:40;;;;;;;5.75;2.88;;;;;;;13.47;100.00;93040.28;5089939;28;20538;-74
2022/08/02 03:10:10;;;;;;;6.00;2.85;;;;;;;13.49;100.00;93044.22;5090292;28;20094;-75
2022/08/02 03:12:37;;;;;;;4.18;2.50;;;;;;;13.42;100.00;93027.28;5090143;28;20472;-75
2022/08/02 03:15:08;;;;;;;5.53;2.67;;;;;;;13.55;100.00;93041.69;5090134;28;20376;-75
2022/08/02 03:17:42;;;;;;;4.35;2.63;;;;;;;13.51;100.00;93038.03;5089935;28;20047;-75
2022/08/02 03:20:11;;;;;;;4.70;2.55;;;;;;;13.52;100.00;93035.19;5090096;28;20044;-74
2022/08/02 03:22:38;;;;;;;3.90;2.67;;;;;;;13.54;100.00;93033.19;5089931;28;20113;-74
2022/08/02 03:25:06;;;;;;;7.38;3.03;;;;;;;13.61;100.00;93036.38;5089726;28;20048;-74
2022/08/02 03:27:34;;;;;;;4.15;2.95;;;;;;;13.61;100.00;93033.03;5089657;28;20044;-74
2022/08/02 03:30:01;;;;;;;3.65;2.40;;;;;;;13.62;100.00;93042.34;5089955;28;20047;-74
2022/08/02 03:32:28;;;;;;;4.50;2.40;;;;;;;13.54;100.00;93045.28;5089556;28;20505;-74
2022/08/02 03:34:55;;;;;;;2.85;2.33;;;;;;;13.51;100.00;93048.34;5089492;28;20460;-75
2022/08/02 03:37:24;;;;;;;5.68;2.85;;;;;;;13.49;100.00;93044.22;5089768;28;20450;-75
2022/08/02 03:39:53;;;;;;;5.40;3.15;;;;;;;13.50;100.00;93034.66;5089759;28;20052;-75
2022/08/02 03:42:21;;;;;;;4.28;2.85;;;;;;;13.53;100.00;93041.16;5089382;28;20554;-75
2022/08/02 03:44:50;;;;;;;3.53;2.83;;;;;;;13.52;100.00;93045.50;5089606;28;20085;-74
2022/08/02 03:47:18;;;;;;;3.25;2.83;;;;;;;13.49;100.00;93041.63;5104022;28;20047;-74
2022/08/02 03:49:46;;;;;;;4.88;3.10;;;;;;;13.47;100.00;93053.97;5107724;28;20489;-74
2022/08/02 03:52:13;;;;;;;4.03;3.08;;;;;;;13.46;100.00;93049.81;5089211;28;20143;-74
2022/08/02 03:54:40;;;;;;;3.90;2.75;;;;;;;13.46;100.00;93061.91;5089294;28;20097;-75
2022/08/02 03:57:07;;;;;;;4.68;3.00;;;;;;;13.42;100.00;93058.22;5089400;28;20040;-75
2022/08/02 03:59:40;;;;;;;6.13;3.08;;;;;;;13.43;100.00;93060.56;5088816;28;20370;-75
2022/08/02 04:02:08;;;;;;;5.07;3.47;;;;;;;13.41;100.00;93061.81;5089278;28;20048;-75
2022/08/02 04:04:35;;;;;;;5.38;3.20;;;;;;;13.44;100.00;93057.00;5088727;28;20048;-75
2022/08/02 04:07:02;;;;;;;4.32;2.65;;;;;;;13.44;100.00;93066.50;5089409;28;20044;-75
2022/08/02 04:09:29;;;;;;;3.53;2.65;;;;;;;13.46;100.00;93069.63;5089198;28;20052;-75
2022/08/02 04:11:55;;;;;;;6.78;3.00;;;;;;;13.52;100.00;93061.00;5088765;28;20101;-75
2022/08/02 04:14:23;;;;;;;7.88;2.78;;;;;;;13.56;100.00;93077.59;5089019;28;20052;-75
2022/08/02 04:16:53;;;;;;;3.92;3.20;;;;;;;13.50;100.00;93075.94;5089055;28;20436;-75
2022/08/02 04:19:26;;;;;;;7.72;3.70;;;;;;;13.53;100.00;93059.22;5089024;28;20040;-75
2022/08/02 04:21:55;;;;;;;6.57;3.50;;;;;;;13.69;100.00;93073.16;5088605;28;20054;-75
2022/08/02 04:24:26;;;;;;;4.43;3.50;;;;;;;13.68;100.00;93069.00;5088650;28;20085;-74
2022/08/02 04:26:56;;;;;;;4.30;3.38;;;;;;;13.70;100.00;93070.34;5088852;28;20067;-74
2022/08/02 04:29:23;;;;;;;5.63;3.03;;;;;;;13.85;100.00;93079.38;5088608;28;20036;-74
2022/08/02 04:31:51;;;;;;;5.85;3.40;;;;;;;13.84;100.00;93067.50;5088628;28;20051;-74
2022/08/02 04:34:18;;;;;;;5.40;3.22;;;;;;;13.97;100.00;93072.34;5088542;28;20044;-74
2022/08/02 04:36:46;;;;;;;6.28;3.35;;;;;;;14.03;100.00;93080.97;5088869;28;20043;-74
2022/08/02 04:39:14;;;;;;;5.32;3.35;;;;;;;14.08;100.00;93073.31;5088900;28;20102;-74
2022/08/02 04:41:43;;;;;;;9.52;4.22;;;;;;;14.18;100.00;93075.25;5088559;28;20701;-74
2022/08/02 04:44:10;;;;;;;7.28;3.83;;;;;;;14.25;100.00;93077.66;5088414;28;20048;-74
2022/08/02 04:46:37;;;;;;;4.10;2.83;;;;;;;14.24;100.00;93069.16;5088413;28;20043;-73
2022/08/02 04:49:04;;;;;;;5.43;3.17;;;;;;;14.35;100.00;93070.06;5088738;28;20458;-74
2022/08/02 04:51:31;;;;;;;5.40;3.60;;;;;;;14.47;100.00;93074.34;5088713;28;20052;-73
2022/08/02 04:53:59;;;;;;;5.57;4.00;;;;;;;14.48;100.00;93071.53;5086607;28;20036;-74
2022/08/02 04:56:25;;;;;;;5.60;3.35;;;;;;;14.61;100.00;93067.84;5086547;28;20443;-73
2022/08/02 04:58:52;;;;;;;5.97;4.28;;;;;;;14.67;100.00;93073.84;5087740;28;20044;-74
2022/08/02 05:01:19;;;;;;;6.82;4.78;;;;;;;14.75;100.00;93076.09;5088312;28;20044;-74
2022/08/02 05:03:45;;;;;;;13.00;5.70;;;;;;;14.82;100.00;93079.25;5088406;28;20465;-74
2022/08/02 05:06:12;;;;;;;9.10;5.90;;;;;;;14.91;100.00;93078.88;5088377;28;22571;-74
2022/08/02 05:08:39;;;;;;;10.57;6.28;;;;;;;15.00;100.00;93071.47;5088333;28;20090;-74
2022/08/02 05:11:07;;;;;;;11.07;6.47;;;;;;;15.09;100.00;93080.38;5088803;28;20097;-74
2022/08/02 05:13:34;;;;;;;14.02;8.35;;;;;;;15.16;100.00;93080.19;5092062;28;20568;-76
2022/08/02 05:16:02;;;;;;;12.70;6.95;;;;;;;15.22;100.00;93081.81;5092106;28;20052;-76
2022/08/02 05:18:29;;;;;;;12.93;7.30;;;;;;;15.30;100.00;93068.47;5092453;28;20044;-77
2022/08/02 05:20:56;;;;;;;16.55;8.88;;;;;;;15.40;100.00;93082.50;5091716;28;20090;-76
2022/08/02 05:23:22;;;;;;;20.55;10.43;;;;;;;15.36;100.00;93071.88;5091942;28;20052;-76
2022/08/02 05:25:49;;;;;;;16.65;9.65;;;;;;;15.45;100.00;93072.22;5092214;28;20040;-76
2022/08/02 05:28:17;;;;;;;16.50;9.60;;;;;;;15.60;100.00;93079.38;5091937;28;20139;-75
2022/08/02 05:30:44;;;;;;;15.98;9.63;;;;;;;15.67;100.00;93087.72;5092221;28;20044;-75
2022/08/02 05:33:11;;;;;;;15.60;9.13;;;;;;;15.73;100.00;93088.53;5091903;28;20044;-75
2022/08/02 05:35:37;;;;;;;27.10;14.70;;;;;;;15.76;100.00;93082.88;5091988;28;20056;-75
2022/08/02 05:38:04;;;;;;;23.17;13.32;;;;;;;15.82;100.00;93087.09;5092077;28;20036;-75
2022/08/02 05:40:31;;;;;;;21.70;12.02;;;;;;;15.87;100.00;93088.94;5091981;28;20052;-75
2022/08/02 05:42:58;;;;;;;21.88;11.98;;;;;;;16.02;100.00;93104.66;5091674;28;20044;-75
2022/08/02 05:45:26;;;;;;;21.02;12.77;;;;;;;16.09;100.00;93101.06;5091515;28;20455;-75
2022/08/02 05:47:53;;;;;;;23.27;13.68;;;;;;;16.13;100.00;93097.75;5091554;28;20546;-76
2022/08/02 05:50:20;;;;;;;25.27;13.20;;;;;;;16.34;100.00;93099.72;5091989;28;20040;-75
2022/08/02 05:52:51;;;;;;;28.42;12.70;;;;;;;16.45;100.00;93097.97;5091458;28;20044;-76
2022/08/02 05:55:24;;;;;;;23.58;12.88;;;;;;;16.62;100.00;93097.84;5091340;28;20093;-75
2022/08/02 05:57:57;;;;;;;20.50;12.02;;;;;;;16.78;100.00;93109.09;5091654;28;20406;-76
2022/08/02 06:00:24;;;;;;;21.45;11.68;;;;;;;17.06;100.00;93112.38;5091797;28;20071;-78
2022/08/02 06:03:04;;;;;;;26.92;13.05;;;;;;;17.19;100.00;93101.56;5091984;28;20051;-78
2022/08/02 06:05:35;;;;;;;26.95;12.73;;;;;;;17.38;98.27;93105.50;5091666;28;20058;-78
2022/08/02 06:08:07;;;;;;;31.15;14.23;;;;;;;17.69;96.79;93116.75;5091617;28;20043;-79
2022/08/02 06:10:36;;;;;;;33.92;14.98;;;;;;;17.94;97.53;93115.25;5091561;28;20056;-79
2022/08/02 06:13:08;;;;;;;33.00;15.95;;;;;;;18.29;93.92;93116.34;5091764;28;20040;-78
2022/08/02 06:15:36;;;;;;;31.75;15.40;;;;;;;18.59;90.72;93108.81;5087848;28;20048;-77
2022/08/02 06:18:06;;;;;;;27.60;14.10;;;;;;;18.85;90.41;93110.59;5090057;28;20044;-81
2022/08/02 06:20:35;;;;;;;25.33;12.68;;;;;;;19.12;84.40;93118.09;5091033;28;20040;-79
2022/08/02 06:23:03;;;;;;;25.75;13.27;;;;;;;19.50;85.06;93121.06;5090886;28;20123;-78
2022/08/02 06:25:31;;;;;;;29.30;13.23;;;;;;;19.76;82.61;93102.72;5091211;28;20050;-79
2022/08/02 06:27:59;;;;;;;22.20;10.88;;;;;;;20.22;77.64;93132.19;5091076;28;20040;-78
2022/08/02 06:30:27;;;;;;;20.98;8.80;;;;;;;20.39;70.74;93131.81;5091535;28;20046;-78
2022/08/02 06:32:55;;;;;;;17.63;8.07;;;;;;;20.78;70.89;93129.41;5091144;28;20048;-78
2022/08/02 06:35:25;;;;;;;16.85;7.65;;;;;;;21.02;68.62;93136.50;5091235;28;20101;-77
2022/08/02 06:37:59;;;;;;;16.25;7.40;;;;;;;21.18;68.37;93137.13;5091112;28;20368;-79
2022/08/02 06:40:31;;;;;;;11.18;4.63;;;;;;;21.38;61.78;93146.56;5091014;28;20040;-79
2022/08/02 06:43:07;;;;;;;13.65;5.57;;;;;;;21.32;63.77;93135.41;5090521;28;20504;-78
2022/08/02 06:45:34;;;;;;;11.32;5.05;;;;;;;21.57;61.07;93138.78;5090610;28;20056;-77
2022/08/02 06:48:02;;;;;;;11.23;4.60;;;;;;;22.03;63.06;93131.41;5090708;28;20109;-77
2022/08/02 06:50:30;;;;;;;6.22;3.40;;;;;;;22.59;57.98;93136.13;5090590;28;20048;-77
2022/08/02 06:52:57;;;;;;;6.28;3.28;;;;;;;22.62;56.95;93133.69;5090490;28;20118;-78
2022/08/02 06:55:24;;;;;;;7.38;3.72;;;;;;;23.02;59.94;93122.03;5090726;28;20048;-78
2022/08/02 06:57:51;;;;;;;6.47;3.05;;;;;;;23.32;55.13;93136.44;5090671;28;20044;-78
2022/08/02 07:00:18;;;;;;;8.75;3.50;;;;;;;23.78;54.55;93133.97;5104884;28;20054;-78
2022/08/02 07:02:44;;;;;;;8.75;3.13;;;;;;;23.49;57.18;93132.47;5100494;28;20051;-78
2022/08/02 07:05:12;;;;;;;7.80;2.65;;;;;;;23.54;56.71;93131.56;5096861;28;20098;-79
2022/08/02 07:07:40;;;;;;;6.93;2.88;;;;;;;23.27;55.32;93126.03;5103311;28;20044;-79
2022/08/02 07:10:07;;;;;;;13.85;3.60;;;;;;;23.32;56.05;93125.97;5104857;28;20046;-79
2022/08/02 07:12:35;;;;;;;11.55;3.28;;;;;;;23.62;56.01;93136.13;5096725;28;20044;-79
2022/08/02 07:15:04;;;;;;;7.03;2.88;;;;;;;23.98;55.11;93132.00;5098790;28;20051;-80
2022/08/02 07:17:32;;;;;;;7.03;2.25;;;;;;;24.18;52.47;93133.41;5105049;28;20040;-79
2022/08/02 07:19:59;;;;;;;5.38;2.80;;;;;;;23.89;53.43;93126.69;5101591;28;20047;-79
2022/08/02 07:22:27;;;;;;;6.97;2.45;;;;;;;24.12;53.81;93124.88;5096822;28;20043;-80
2022/08/02 07:24:57;;;;;;;6.32;2.20;;;;;;;24.59;54.30;93131.69;5101241;28;20509;-80
2022/08/02 07:27:24;;;;;;;5.78;2.42;;;;;;;24.78;50.33;93123.63;5105302;28;20039;-78
2022/08/02 07:29:51;;;;;;;4.13;2.20;;;;;;;25.02;51.61;93119.88;5098968;28;20093;-80
2022/08/02 07:32:19;;;;;;;2.90;1.50;;;;;;;24.71;53.59;93115.38;5096142;28;20086;-79
2022/08/02 07:34:46;;;;;;;5.63;2.55;;;;;;;24.62;51.57;93117.94;5103152;28;20047;-80
2022/08/02 07:37:13;;;;;;;4.40;2.17;;;;;;;24.12;54.12;93117.00;5103484;28;20443;-80
2022/08/02 07:39:40;;;;;;;3.13;1.73;;;;;;;24.33;53.16;93121.78;5096096;28;20096;-80
2022/08/02 07:42:11;;;;;;;3.83;1.80;;;;;;;24.48;52.36;93120.66;5099397;28;20113;-77
2022/08/02 07:44:38;;;;;;;3.50;1.77;;;;;;;24.23;52.78;93119.41;5104198;28;20497;-81
2022/08/02 07:47:05;;;;;;;3.38;1.50;;;;;;;24.37;53.81;93112.25;5090841;28;20101;-81
2022/08/02 07:49:32;;;;;;;2.97;1.63;;;;;;;24.69;52.85;93113.06;5103346;28;20043;-82
2022/08/02 07:51:58;;;;;;;7.38;1.35;;;;;;;24.95;50.71;93119.56;5103485;28;20047;-82
2022/08/02 07:54:25;;;;;;;6.28;1.85;;;;;;;25.30;52.16;93108.38;5096109;28;20101;-80
2022/08/02 07:56:53;;;;;;;5.38;1.70;;;;;;;25.68;50.71;93102.63;5098459;28;20105;-79
2022/08/02 07:59:21;;;;;;;3.53;1.80;;;;;;;25.59;50.07;93099.97;5104382;28;20048;-80
2022/08/02 08:01:48;;;;;;;4.50;1.33;;;;;;;26.00;50.79;93105.13;5100243;28;20047;-79
2022/08/02 08:04:16;;;;;;;5.68;1.60;;;;;;;26.15;51.13;93085.47;5095532;28;20081;-79
2022/08/02 08:06:42;;;;;;;3.17;1.67;;;;;;;26.68;50.61;93099.38;5101402;28;20097;-79
2022/08/02 08:09:09;;;;;;;2.60;1.17;;;;;;;26.80;46.98;93101.31;5104139;28;20044;-79
2022/08/02 08:11:36;;;;;;;3.85;1.23;;;;;;;27.17;48.18;93100.91;5096374;28;20043;-80
2022/08/02 08:14:03;;;;;;;1.67;0.77;;;;;;;26.80;45.94;93106.59;5097571;28;20451;-82
2022/08/02 08:16:31;;;;;;;2.35;0.68;;;;;;;25.99;46.44;93098.31;5103785;28;20093;-81
2022/08/02 08:18:58;;;;;;;1.48;0.75;;;;;;;25.58;48.37;93102.91;5101337;28;20043;-80
2022/08/02 08:21:25;;;;;;;4.88;0.70;;;;;;;25.92;47.47;93101.41;5095536;28;20040;-79
2022/08/02 08:23:52;;;;;;;1.60;0.57;;;;;;;26.18;47.97;93090.09;5100410;28;20440;-79
2022/08/02 08:26:18;;;;;;;1.73;0.60;;;;;;;26.02;46.35;93106.34;5103398;28;20096;-80
2022/08/02 08:28:45;;;;;;;1.80;0.70;;;;;;;26.22;47.00;93095.53;5097443;28;20062;-78
2022/08/02 08:31:12;;;;;;;1.70;0.50;;;;;;;25.87;47.33;93102.34;5095418;28;20048;-79
2022/08/02 08:33:40;;;;;;;2.50;1.10;;;;;;;26.18;49.41;93081.41;5103521;28;20055;-78
2022/08/02 08:36:07;;;;;;;1.63;0.55;;;;;;;26.83;47.94;93092.03;5089670;28;20048;-79
2022/08/02 08:38:34;;;;;;;1.55;0.60;;;;;;;27.16;44.86;93091.47;5103420;28;20124;-79
2022/08/02 08:41:01;;;;;;;1.35;0.50;;;;;;;27.04;45.51;93099.28;5096295;28;20043;-80
2022/08/02 08:43:28;;;;;;;1.30;0.60;;;;;;;27.30;47.62;93091.22;5096877;28;20055;-80
2022/08/02 08:45:55;;;;;;;1.30;0.60;;;;;;;26.70;46.20;93096.41;5102726;28;20516;-80
2022/08/02 08:48:24;;;;;;;1.77;0.60;;;;;;;26.00;49.05;93089.31;5089409;28;20455;-81
2022/08/02 08:50:55;;;;;;;2.40;0.80;;;;;;;25.21;49.00;93089.97;5103751;28;20051;-81
2022/08/02 08:53:25;;;;;;;0.93;0.30;;;;;;;25.44;47.94;93090.66;5100234;28;20058;-80
2022/08/02 08:55:55;;;;;;;1.85;0.80;;;;;;;25.47;49.22;93084.00;5106035;28;20093;-81
2022/08/02 08:58:22;;;;;;;1.00;0.52;;;;;;;25.07;48.05;93090.84;5099125;28;20092;-81
2022/08/02 09:00:49;;;;;;;1.45;0.50;;;;;;;25.20;48.93;93088.41;5095372;28;20048;-81
2022/08/02 09:03:15;;;;;;;1.15;0.75;;;;;;;25.61;48.81;93089.91;5101270;28;20060;-81
2022/08/02 09:05:45;;;;;;;0.85;0.40;;;;;;;25.71;48.40;93096.75;5103316;28;20048;-81
2022/08/02 09:08:14;;;;;;;1.38;0.50;;;;;;;25.72;47.60;93098.31;5095675;28;20043;-82
2022/08/02 09:10:42;;;;;;;0.90;0.32;;;;;;;25.60;46.08;93098.13;5096029;28;20144;-81
2022/08/02 09:13:15;;;;;;;1.10;0.40;;;;;;;25.22;47.46;93102.81;5103259;28;20040;-81
2022/08/02 09:15:44;;;;;;;2.08;0.57;;;;;;;25.29;48.13;93098.94;5101722;28;20047;-81
2022/08/02 09:18:12;;;;;;;1.42;0.45;;;;;;;24.95;48.68;93101.16;5095134;28;20459;-83
2022/08/02 09:20:52;;;;;;;1.60;0.70;;;;;;;25.60;47.35;93101.53;5098023;28;20049;-81
2022/08/02 09:23:21;;;;;;;1.50;0.60;;;;;;;25.22;49.60;93094.91;5103220;28;20044;-83
2022/08/02 09:25:58;;;;;;;1.88;0.68;;;;;;;25.59;49.42;93089.47;5100776;28;20093;-81
2022/08/02 09:28:29;;;;;;;2.20;0.75;;;;;;;25.72;49.39;93090.41;5095098;28;20047;-85
2022/08/02 09:30:57;;;;;;;1.60;0.60;;;;;;;26.02;49.69;93055.59;5097087;28;20452;-82
2022/08/02 09:33:27;;;;;;;1.83;0.50;;;;;;;26.26;46.91;93094.63;5103139;28;20559;-81
2022/08/02 09:36:02;;;;;;;1.10;0.50;;;;;;;26.16;45.65;93102.81;5099851;28;20484;-83
2022/08/02 09:38:31;;;;;;;2.00;0.52;;;;;;;26.28;46.68;93079.28;5094864;28;20048;-82
2022/08/02 09:40:59;;;;;;;0.98;0.50;;;;;;;26.18;46.43;93081.41;5098402;28;20044;-83
2022/08/02 09:43:36;;;;;;;1.10;0.40;;;;;;;26.04;45.60;93089.47;5103209;28;20047;-83
2022/08/02 09:46:14;;;;;;;1.52;0.50;;;;;;;25.99;47.73;93083.31;5093042;28;20451;-84
2022/08/02 09:48:51;;;;;;;1.58;0.68;;;;;;;25.69;45.77;93071.84;5102778;28;20089;-81
2022/08/02 09:51:20;;;;;;;1.77;0.65;;;;;;;25.93;47.05;93089.81;5088773;28;20127;-82
2022/08/02 09:53:50;;;;;;;1.10;0.47;;;;;;;25.30;46.52;93072.38;5088814;28;20044;-84
2022/08/02 09:56:18;;;;;;;2.33;0.45;;;;;;;25.08;48.15;93071.38;5095062;28;20425;-84
2022/08/02 09:58:46;;;;;;;1.40;0.50;;;;;;;25.41;47.24;93079.97;5099043;28;20447;-84
2022/08/02 10:01:12;;;;;;;1.15;0.50;;;;;;;25.56;47.65;93073.53;5106772;28;20105;-83
2022/08/02 10:03:54;;;;;;;1.13;0.40;;;;;;;25.54;45.73;93057.28;5103693;28;20047;-83
2022/08/02 10:06:21;;;;;;;0.75;0.40;;;;;;;25.65;45.92;93081.41;5097879;28;20574;-82
2022/08/02 10:08:50;;;;;;;2.10;0.60;;;;;;;25.86;47.28;93071.06;5100906;28;20125;-85
2022/08/02 10:11:17;;;;;;;2.67;0.70;;;;;;;26.09;45.97;93065.63;5110413;28;20135;-83
2022/08/02 10:13:50;;;;;;;1.40;0.57;;;;;;;25.97;45.51;93045.22;5101917;28;20048;-84
2022/08/02 10:16:18;;;;;;;1.02;0.50;;;;;;;25.78;46.91;93069.97;5105903;28;20052;-81
2022/08/02 10:18:45;;;;;;;1.25;0.60;;;;;;;25.70;46.67;93074.16;5101568;28;20055;-85
2022/08/02 10:21:15;;;;;;;2.67;1.15;;;;;;;25.70;47.01;93058.38;5098082;28;20048;-84
2022/08/02 10:23:48;;;;;;;1.85;0.55;;;;;;;26.21;47.22;93063.16;5103771;28;20044;-83
2022/08/02 10:26:20;;;;;;;4.03;1.30;;;;;;;25.87;46.02;93065.50;5105807;28;20043;-81
2022/08/02 10:28:49;;;;;;;1.90;0.80;;;;;;;26.27;47.57;93064.59;5100344;28;20488;-83
2022/08/02 10:31:23;;;;;;;0.93;0.50;;;;;;;25.84;47.54;93058.25;5097771;28;20079;-81
2022/08/02 10:33:52;;;;;;;1.00;0.43;;;;;;;26.47;47.72;93053.69;5104121;28;20040;-83
2022/08/02 10:36:22;;;;;;;0.80;0.40;;;;;;;26.59;46.64;93060.94;5106028;28;20073;-81
2022/08/02 10:38:50;;;;;;;1.33;0.60;;;;;;;26.52;46.32;93059.56;5098704;28;20120;-82
2022/08/02 10:41:40;;;;;;;1.10;0.40;;;;;;;26.73;47.09;93051.00;5098311;28;20048;-81
2022/08/02 10:44:07;;;;;;;1.38;0.52;;;;;;;27.13;44.47;93051.78;5099864;28;20047;-83
2022/08/02 10:46:37;;;;;;;2.45;0.65;;;;;;;26.92;44.50;93058.53;5096689;28;20048;-82
2022/08/02 10:49:09;;;;;;;1.38;0.77;;;;;;;26.05;46.51;93056.84;5105782;28;20047;-84
2022/08/02 10:52:32;;;;;;;1.30;0.60;;;;;;;26.58;45.91;93049.66;5101593;28;20082;-84
2022/08/02 10:55:00;;;;;;;2.85;0.77;;;;;;;26.26;46.52;93067.53;5099691;28;20521;-85
2022/08/02 10:57:30;;;;;;;1.52;0.57;;;;;;;26.46;45.87;93062.66;5088693;28;20509;-83
2022/08/02 10:59:58;;;;;;;1.55;0.60;;;;;;;26.74;44.48;93031.44;5107439;28;20036;-82
2022/08/02 11:02:37;;;;;;;1.42;0.55;;;;;;;27.62;44.08;93051.34;5110898;28;20047;-84
2022/08/02 11:05:12;;;;;;;2.35;0.60;;;;;;;27.54;43.75;93049.53;5110726;28;20433;-89
2022/08/02 11:07:41;;;;;;;3.13;0.73;;;;;;;26.43;45.54;93056.19;5110497;28;20043;-85
2022/08/02 11:10:27;;;;;;;2.90;0.70;;;;;;;26.65;46.39;93057.81;5109744;28;20043;-85
2022/08/02 11:13:09;;;;;;;1.27;0.50;;;;;;;27.35;45.16;93054.13;5096889;28;20093;-85
2022/08/02 11:16:03;;;;;;;1.73;0.90;;;;;;;27.40;45.16;93044.50;5096326;28;20051;-88
2022/08/02 11:19:04;;;;;;;2.20;0.65;;;;;;;26.81;47.07;93058.06;5100886;28;20048;-85
2022/08/02 11:21:33;;;;;;;1.27;0.60;;;;;;;26.64;46.89;93050.22;5092079;28;20048;-86
2022/08/02 11:24:26;;;;;;;1.52;0.60;;;;;;;26.28;47.85;93055.59;5095190;28;20526;-82
2022/08/02 11:26:56;;;;;;;1.52;0.68;;;;;;;26.33;49.04;93057.28;5090978;28;20064;-85
2022/08/02 11:29:35;;;;;;;1.42;0.70;;;;;;;25.51;48.01;93058.66;5091492;28;20055;-85
2022/08/02 11:32:02;;;;;;;1.02;0.50;;;;;;;25.73;48.60;93036.72;5104790;28;20554;-85
2022/08/02 11:34:37;;;;;;;1.33;0.52;;;;;;;25.94;48.41;93054.50;5097653;28;20047;-85
2022/08/02 11:37:04;;;;;;;1.60;0.57;;;;;;;25.76;49.59;93056.38;5095543;28;20418;-83